Time;durP1;ratioP1;P1;durP2;ratioP2;P2;SDS_P1;SDS_P2;PMS_P1;PMS_P2;Temp;Humidity;BMP_temperature;BMP_pressure;BME280_temperature;BME280_humidity;BME280_pressure;Samples;Min_cycle;Max_cycle;Signal;HPM_P1;HPM_P2
2022/01/11 00:00:16;;;;;;;;;19.20;18.40;;;;;7.89;61.52;102368.03;2103974;27;47920;-69
2022/01/11 00:01:18;;;;;;;;;19.00;18.00;;;;;7.90;61.46;102363.63;2096292;27;47327;-69
2022/01/11 00:02:19;;;;;;;;;19.00;18.20;;;;;7.89;61.59;102356.56;2105226;27;47005;-69
2022/01/11 00:03:20;;;;;;;;;20.60;20.40;;;;;7.88;61.69;102355.69;2104353;27;47084;-69
2022/01/11 00:04:28;;;;;;;;;22.00;22.00;;;;;7.88;61.22;102350.41;2104535;27;46523;-69
2022/01/11 00:05:45;;;;;;;;;21.00;20.00;;;;;7.88;61.61;102353.03;2105185;27;48564;-69
2022/01/11 00:06:49;;;;;;;;;20.40;19.40;;;;;7.87;61.37;102348.59;2105155;27;46781;-68
2022/01/11 00:07:52;;;;;;;;;18.20;17.40;;;;;7.87;61.60;102350.34;2105070;27;45512;-70
2022/01/11 00:08:59;;;;;;;;;21.60;19.00;;;;;7.87;61.60;102345.06;2105165;27;45528;-70
2022/01/11 00:10:01;;;;;;;;;24.00;24.00;;;;;7.88;61.74;102349.50;2104535;27;46191;-69
2022/01/11 00:11:04;;;;;;;;;17.60;17.40;;;;;7.87;61.69;102355.63;2104647;27;45854;-70
2022/01/11 00:12:08;;;;;;;;;21.60;20.80;;;;;7.86;61.75;102346.81;2104684;27;47840;-69
2022/01/11 00:13:09;;;;;;;;;25.40;22.60;;;;;7.87;61.56;102356.50;2104374;27;45514;-68
2022/01/11 00:14:10;;;;;;;;;25.20;22.00;;;;;7.86;61.75;102356.50;2097612;27;46227;-68
2022/01/11 00:15:11;;;;;;;;;20.75;19.75;;;;;7.87;61.85;102355.63;2095425;28;46316;-70
2022/01/11 00:16:15;;;;;;;;;24.80;22.40;;;;;7.87;61.65;102361.81;2113213;27;45789;-69
2022/01/11 00:17:15;;;;;;;;;21.20;21.20;;;;;7.87;61.93;102358.28;2103569;27;45372;-69
2022/01/11 00:18:17;;;;;;;;;19.40;18.40;;;;;7.87;61.80;102356.50;2091122;28;48620;-69
2022/01/11 00:19:17;;;;;;;;;26.00;25.00;;;;;7.87;61.68;102360.91;2088482;28;46070;-70
2022/01/11 00:20:20;;;;;;;;;23.00;23.00;;;;;7.86;61.52;102360.03;2096196;28;45511;-69
2022/01/11 00:21:22;;;;;;;;;26.20;23.60;;;;;7.86;61.81;102365.31;2103780;27;45460;-69
2022/01/11 00:22:29;;;;;;;;;20.20;19.80;;;;;7.86;61.67;102369.72;2091049;28;45574;-68
2022/01/11 00:24:33;;;;;;;;;25.40;25.40;;;;;7.86;61.88;102359.13;2096666;28;46208;-70
2022/01/11 00:25:37;;;;;;;;;26.40;22.20;;;;;7.86;61.80;102360.03;2096451;27;45675;-68
2022/01/11 00:26:38;;;;;;;;;22.60;20.80;;;;;7.84;61.82;102360.88;2095901;28;45530;-70
2022/01/11 00:27:39;;;;;;;;;28.40;28.40;;;;;7.84;61.81;102353.84;2095700;27;46179;-69
2022/01/11 00:28:40;;;;;;;;;22.25;20.25;;;;;7.85;61.55;102354.72;2104379;27;45396;-70
2022/01/11 00:29:44;;;;;;;;;24.00;22.20;;;;;7.84;61.98;102366.16;2095960;27;46289;-70
2022/01/11 00:30:48;;;;;;;;;20.40;19.00;;;;;7.85;61.90;102362.66;2092558;28;47754;-68
2022/01/11 00:31:50;;;;;;;;;24.00;21.60;;;;;7.84;62.01;102356.47;2088003;28;45929;-69
2022/01/11 00:32:54;;;;;;;;;16.40;14.60;;;;;7.84;61.88;102352.94;2096835;27;45381;-69
2022/01/11 00:33:55;;;;;;;;;22.40;18.80;;;;;7.85;61.95;102358.25;2096027;28;47279;-68
2022/01/11 00:34:56;;;;;;;;;21.00;19.25;;;;;7.86;61.90;102356.50;2096012;28;46966;-69
2022/01/11 00:35:59;;;;;;;;;26.80;21.40;;;;;7.86;61.77;102351.22;2087312;28;47307;-69
2022/01/11 00:37:00;;;;;;;;;21.00;19.40;;;;;7.86;62.10;102357.38;2096568;27;45755;-69
2022/01/11 00:38:01;;;;;;;;;24.20;22.20;;;;;7.85;61.99;102355.59;2095290;28;47999;-68
2022/01/11 00:39:02;;;;;;;;;22.25;21.25;;;;;7.86;62.13;102353.84;2094449;28;46052;-68
2022/01/11 00:40:06;;;;;;;;;22.60;22.20;;;;;7.86;61.91;102356.50;2096286;28;46585;-69
2022/01/11 00:41:10;;;;;;;;;23.40;23.00;;;;;7.85;61.83;102352.06;2096215;28;46794;-69
2022/01/11 00:42:16;;;;;;;;;23.20;20.60;;;;;7.85;61.96;102354.72;2096562;27;46890;-69
2022/01/11 00:43:19;;;;;;;;;22.00;17.80;;;;;7.87;61.93;102351.22;2096137;28;47129;-69
2022/01/11 00:44:20;;;;;;;;;24.40;19.60;;;;;7.86;61.87;102353.84;2089377;28;45457;-68
2022/01/11 00:45:20;;;;;;;;;21.00;18.00;;;;;7.86;61.92;102353.84;2095431;28;46256;-69
2022/01/11 00:46:21;;;;;;;;;19.75;18.50;;;;;7.86;61.87;102349.44;2096367;27;47926;-69
2022/01/11 00:47:22;;;;;;;;;20.80;20.80;;;;;7.83;61.74;102352.06;2096245;27;46716;-69
2022/01/11 00:48:24;;;;;;;;;32.50;28.50;;;;;7.84;61.85;102353.84;2096266;28;46224;-69
2022/01/11 00:49:24;;;;;;;;;21.20;20.60;;;;;7.85;61.86;102367.94;2088685;28;45697;-68
2022/01/11 00:50:25;;;;;;;;;21.00;20.50;;;;;7.84;61.85;102356.47;2092268;28;45866;-69
2022/01/11 00:51:26;;;;;;;;;22.20;20.00;;;;;7.84;61.92;102352.94;2087127;28;46220;-69
2022/01/11 00:52:28;;;;;;;;;19.75;17.25;;;;;7.83;61.66;102365.28;2095820;28;46137;-71
2022/01/11 00:53:32;;;;;;;;;24.40;23.40;;;;;7.83;61.79;102359.97;2096512;27;46837;-69
2022/01/11 00:54:34;;;;;;;;;26.40;23.80;;;;;7.83;62.08;102367.03;2096279;27;46748;-68
2022/01/11 00:55:35;;;;;;;;;22.00;21.00;;;;;7.82;62.04;102366.13;2093073;27;47884;-68
2022/01/11 00:56:36;;;;;;;;;25.80;25.80;;;;;7.81;61.69;102364.38;2087967;28;47245;-68
2022/01/11 00:57:38;;;;;;;;;28.40;22.80;;;;;7.82;62.01;102366.13;2093802;27;46869;-68
2022/01/11 00:58:44;;;;;;;;;28.00;22.60;;;;;7.81;61.85;102358.19;2096355;27;45377;-71
2022/01/11 00:59:45;;;;;;;;;25.20;22.80;;;;;7.79;61.80;102358.16;2095240;28;45461;-68
2022/01/11 01:00:47;;;;;;;;;28.75;28.00;;;;;7.80;61.86;102364.34;2085862;28;45780;-70
2022/01/11 01:01:48;;;;;;;;;27.00;27.00;;;;;7.79;61.87;102359.91;2085225;28;46403;-69
2022/01/11 01:02:49;;;;;;;;;25.60;24.00;;;;;7.78;61.78;102358.16;2079648;28;46332;-69
2022/01/11 01:03:50;;;;;;;;;29.60;25.60;;;;;7.78;62.08;102363.44;2091644;28;45407;-69
2022/01/11 01:04:54;;;;;;;;;25.00;24.60;;;;;7.78;61.69;102366.97;2096348;27;45774;-69
2022/01/11 01:05:55;;;;;;;;;29.00;27.00;;;;;7.77;61.82;102367.84;2095848;28;48025;-69
2022/01/11 01:06:56;;;;;;;;;29.80;27.00;;;;;7.77;61.90;102367.84;2096541;27;48527;-69
2022/01/11 01:07:57;;;;;;;;;26.25;26.25;;;;;7.76;61.93;102368.69;2096213;27;47180;-71
2022/01/11 01:08:58;;;;;;;;;35.20;27.60;;;;;7.75;61.92;102372.22;2095749;28;45772;-70
2022/01/11 01:10:07;;;;;;;;;27.80;27.80;;;;;7.75;61.86;102369.56;2095080;28;46171;-69
2022/01/11 01:11:08;;;;;;;;;30.60;28.60;;;;;7.74;61.82;102374.78;2095545;28;45531;-69
2022/01/11 01:12:09;;;;;;;;;28.20;26.40;;;;;7.72;62.03;102372.13;2094658;28;48314;-69
2022/01/11 01:13:17;;;;;;;;;25.60;25.40;;;;;7.71;61.95;102383.56;2088664;27;46882;-69
2022/01/11 01:14:21;;;;;;;;;28.60;26.40;;;;;7.72;62.12;102381.81;2096084;27;47074;-70
2022/01/11 01:15:23;;;;;;;;;29.60;26.60;;;;;7.72;62.08;102379.19;2103902;27;46562;-69
2022/01/11 01:16:24;;;;;;;;;25.20;25.20;;;;;7.71;62.04;102380.94;2095442;28;45697;-70
2022/01/11 01:17:26;;;;;;;;;28.25;25.75;;;;;7.72;62.21;102382.69;2086994;27;48176;-68
2022/01/11 01:18:31;;;;;;;;;30.40;25.40;;;;;7.71;61.79;102380.94;2092589;27;47012;-69
2022/01/11 01:19:32;;;;;;;;;30.60;28.60;;;;;7.72;61.97;102381.81;2095872;27;45384;-70
2022/01/11 01:20:34;;;;;;;;;27.40;27.20;;;;;7.70;62.04;102381.78;2096182;27;45553;-69
2022/01/11 01:21:38;;;;;;;;;28.40;25.40;;;;;7.71;62.44;102383.56;2095622;27;47293;-69
2022/01/11 01:22:42;;;;;;;;;29.80;26.00;;;;;7.72;62.23;102381.81;2086998;28;45389;-69
2022/01/11 01:23:43;;;;;;;;;30.80;30.40;;;;;7.73;62.14;102379.19;2078775;28;47990;-69
2022/01/11 01:24:47;;;;;;;;;26.80;26.60;;;;;7.73;62.17;102378.31;2095498;28;48266;-68
2022/01/11 01:25:52;;;;;;;;;28.40;26.40;;;;;7.74;62.08;102385.38;2095352;28;45687;-69
2022/01/11 01:26:53;;;;;;;;;32.00;29.00;;;;;7.73;61.94;102376.56;2095653;28;45492;-69
2022/01/11 01:27:58;;;;;;;;;31.75;26.25;;;;;7.73;61.95;102373.91;2095842;28;46164;-69
2022/01/11 01:28:59;;;;;;;;;31.20;29.40;;;;;7.74;61.94;102378.31;2096487;27;45425;-69
2022/01/11 01:30:01;;;;;;;;;26.00;22.20;;;;;7.73;62.02;102373.91;2095938;28;46565;-68
2022/01/11 01:31:04;;;;;;;;;31.80;29.80;;;;;7.74;61.86;102374.78;2095825;28;45399;-69
2022/01/11 01:32:05;;;;;;;;;27.80;27.20;;;;;7.73;62.22;102370.38;2104141;27;46465;-69
2022/01/11 01:33:07;;;;;;;;;27.00;24.25;;;;;7.74;61.94;102377.44;2104041;27;47014;-69
2022/01/11 01:34:07;;;;;;;;;53.60;44.60;;;;;7.73;62.09;102379.19;2103796;27;47906;-71
2022/01/11 01:35:09;;;;;;;;;52.75;40.75;;;;;7.74;62.11;102375.69;2095948;28;46132;-68
2022/01/11 01:36:11;;;;;;;;;40.20;33.20;;;;;7.74;62.02;102374.78;2096694;28;45463;-69
2022/01/11 01:37:12;;;;;;;;;30.40;28.20;;;;;7.74;62.13;102380.97;2096838;28;45441;-68
2022/01/11 01:38:13;;;;;;;;;25.80;25.40;;;;;7.74;62.14;102388.91;2097769;27;45353;-69
2022/01/11 01:39:13;;;;;;;;;27.75;27.50;;;;;7.73;61.85;102391.53;2096959;27;46592;-69
2022/01/11 01:40:17;;;;;;;;;32.75;30.00;;;;;7.73;61.83;102380.94;2080425;28;47903;-70
2022/01/11 01:41:20;;;;;;;;;27.00;25.20;;;;;7.72;62.07;102388.00;2080836;28;45489;-70
2022/01/11 01:42:25;;;;;;;;;26.20;24.60;;;;;7.70;62.06;102391.47;2097621;27;45449;-70
2022/01/11 01:43:26;;;;;;;;;27.00;26.40;;;;;7.70;61.97;102392.38;2097549;27;46301;-70
2022/01/11 01:44:32;;;;;;;;;33.40;29.60;;;;;7.68;61.81;102392.34;2096836;28;48457;-67
2022/01/11 01:45:33;;;;;;;;;28.20;23.80;;;;;7.68;61.76;102392.34;2081363;28;47293;-69
2022/01/11 01:46:34;;;;;;;;;28.00;25.25;;;;;7.67;62.12;102398.50;2088278;28;46328;-68
2022/01/11 01:47:35;;;;;;;;;25.25;22.00;;;;;7.65;61.79;102394.94;2097226;27;46427;-68
2022/01/11 01:48:36;;;;;;;;;28.40;24.60;;;;;7.67;61.89;102402.88;2096826;28;46152;-69
2022/01/11 01:49:39;;;;;;;;;27.40;24.40;;;;;7.66;61.93;102399.34;2100818;27;45989;-68
2022/01/11 01:50:41;;;;;;;;;29.60;27.60;;;;;7.66;61.80;102406.41;2096820;28;45437;-68
2022/01/11 01:51:43;;;;;;;;;31.00;26.60;;;;;7.66;61.80;102406.41;2096471;28;46041;-70
2022/01/11 01:52:44;;;;;;;;;29.20;25.20;;;;;7.64;62.06;102405.50;2097666;27;47390;-69
2022/01/11 01:53:49;;;;;;;;;24.00;23.60;;;;;7.65;62.10;102404.63;2097384;27;45626;-67
2022/01/11 01:54:52;;;;;;;;;31.00;27.20;;;;;7.65;61.93;102402.88;2097679;27;45407;-68
2022/01/11 01:55:52;;;;;;;;;26.40;23.60;;;;;7.64;61.95;102401.09;2096290;27;46297;-68
2022/01/11 01:56:53;;;;;;;;;25.00;22.50;;;;;7.64;62.04;102406.38;2097823;27;45603;-70
2022/01/11 01:57:54;;;;;;;;;26.25;25.00;;;;;7.64;62.09;102409.03;2096783;28;46441;-69
2022/01/11 01:58:55;;;;;;;;;25.25;25.25;;;;;7.63;61.96;102409.00;2096943;28;46397;-70
2022/01/11 01:59:56;;;;;;;;;25.20;23.00;;;;;7.62;62.09;102397.53;2097147;27;46632;-70
2022/01/11 02:01:03;;;;;;;;;31.00;25.75;;;;;7.61;62.04;102394.84;2097662;28;45496;-69
2022/01/11 02:02:06;;;;;;;;;26.60;26.60;;;;;7.63;61.94;102403.72;2093946;28;48485;-69
2022/01/11 02:03:11;;;;;;;;;23.20;20.20;;;;;7.61;61.88;102401.00;2088767;28;47352;-69
2022/01/11 02:04:17;;;;;;;;;25.80;24.00;;;;;7.61;61.98;102406.28;2089355;28;47007;-69
2022/01/11 02:05:18;;;;;;;;;24.60;22.20;;;;;7.61;61.78;102414.22;2088976;28;47391;-69
2022/01/11 02:06:21;;;;;;;;;30.40;27.00;;;;;7.60;61.78;102406.28;2096746;28;45861;-68
2022/01/11 02:07:22;;;;;;;;;23.75;23.50;;;;;7.60;62.05;102412.44;2096764;28;46400;-68
2022/01/11 02:08:25;;;;;;;;;27.00;24.50;;;;;7.61;62.14;102413.34;2088353;28;48406;-69
2022/01/11 02:09:26;;;;;;;;;23.60;22.00;;;;;7.60;61.94;102415.09;2097001;27;47858;-69
2022/01/11 02:10:26;;;;;;;;;23.40;23.20;;;;;7.61;61.81;102413.34;2105334;27;45661;-69
2022/01/11 02:11:27;;;;;;;;;20.25;20.25;;;;;7.60;61.84;102417.72;2096714;28;46301;-69
2022/01/11 02:12:28;;;;;;;;;26.25;25.00;;;;;7.58;61.84;102416.81;2087259;28;46070;-68
2022/01/11 02:13:29;;;;;;;;;27.00;22.00;;;;;7.56;61.92;102415.03;2079796;28;45355;-69
2022/01/11 02:14:30;;;;;;;;;26.40;21.40;;;;;7.56;61.92;102407.97;2087972;28;45504;-68
2022/01/11 02:15:31;;;;;;;;;26.50;26.25;;;;;7.57;61.93;102414.16;2088194;28;46296;-68
2022/01/11 02:16:32;;;;;;;;;25.60;22.60;;;;;7.56;61.89;102415.91;2096648;28;47646;-68
2022/01/11 02:17:33;;;;;;;;;25.00;23.00;;;;;7.57;62.11;102420.31;2102191;27;47474;-68
2022/01/11 02:18:34;;;;;;;;;29.80;23.40;;;;;7.58;61.79;102418.56;2105676;27;46436;-69
2022/01/11 02:19:35;;;;;;;;;25.25;24.00;;;;;7.58;61.99;102421.22;2105032;27;48154;-69
2022/01/11 02:20:44;;;;;;;;;22.50;21.25;;;;;7.57;61.88;102416.78;2096752;27;45338;-68
2022/01/11 02:21:45;;;;;;;;;22.20;22.20;;;;;7.55;62.00;102416.78;2105121;27;46682;-68
2022/01/11 02:22:46;;;;;;;;;21.20;21.00;;;;;7.57;61.87;102414.16;2105785;27;45875;-69
2022/01/11 02:23:47;;;;;;;;;19.00;19.00;;;;;7.56;61.57;102421.19;2104612;27;45325;-68
2022/01/11 02:24:47;;;;;;;;;17.40;17.40;;;;;7.57;61.53;102417.69;2096717;27;47718;-68
2022/01/11 02:25:49;;;;;;;;;23.00;19.25;;;;;7.55;61.59;102414.13;2105046;27;48449;-68
2022/01/11 02:26:50;;;;;;;;;23.20;20.20;;;;;7.54;61.67;102416.75;2105562;27;47569;-68
2022/01/11 02:27:50;;;;;;;;;23.50;21.75;;;;;7.52;62.18;102413.19;2105422;27;46014;-68
2022/01/11 02:28:52;;;;;;;;;21.25;19.25;;;;;7.52;61.48;102418.47;2101932;27;47313;-68
2022/01/11 02:29:54;;;;;;;;;23.80;21.20;;;;;7.51;61.80;102419.34;2100483;27;46061;-68
2022/01/11 02:30:56;;;;;;;;;26.40;25.00;;;;;7.50;61.68;102415.81;2105606;27;46034;-68
2022/01/11 02:31:57;;;;;;;;;19.20;18.40;;;;;7.50;61.58;102407.00;2104844;27;47201;-70
2022/01/11 02:32:58;;;;;;;;;19.50;19.50;;;;;7.49;61.78;102402.53;2091511;28;46309;-69
2022/01/11 02:33:58;;;;;;;;;27.00;22.75;;;;;7.50;61.72;102423.75;2096489;28;45815;-69
2022/01/11 02:34:59;;;;;;;;;28.50;23.00;;;;;7.49;62.05;102416.66;2105426;27;48152;-69
2022/01/11 02:36:03;;;;;;;;;21.50;16.00;;;;;7.50;61.65;102420.22;2105857;27;46561;-69
2022/01/11 02:37:04;;;;;;;;;25.40;24.00;;;;;7.48;61.52;102420.16;2108753;27;45903;-68
2022/01/11 02:38:05;;;;;;;;;21.00;18.60;;;;;7.47;62.01;102421.00;2112418;27;46843;-69
2022/01/11 02:39:06;;;;;;;;;18.25;18.25;;;;;7.47;61.62;102410.44;2096455;28;47607;-68
2022/01/11 02:40:07;;;;;;;;;17.50;16.25;;;;;7.45;61.50;102420.09;2096628;27;46065;-68
2022/01/11 02:41:08;;;;;;;;;19.00;18.60;;;;;7.45;61.44;102420.09;2104960;27;47428;-68
2022/01/11 02:42:09;;;;;;;;;20.00;17.25;;;;;7.45;61.44;102416.56;2104892;27;45790;-68
2022/01/11 02:43:10;;;;;;;;;19.00;16.75;;;;;7.44;61.69;102426.25;2104545;27;45427;-69
2022/01/11 02:44:10;;;;;;;;;21.40;19.60;;;;;7.43;61.62;102421.84;2105452;27;46450;-70
2022/01/11 02:45:17;;;;;;;;;20.25;18.25;;;;;7.42;61.54;102427.09;2105244;27;46536;-70
2022/01/11 02:46:19;;;;;;;;;20.80;19.00;;;;;7.42;61.67;102429.72;2105328;27;48103;-69
2022/01/11 02:47:20;;;;;;;;;24.20;21.60;;;;;7.38;61.33;102429.69;2104812;27;46284;-70
2022/01/11 02:48:22;;;;;;;;;18.00;16.50;;;;;7.38;61.33;102424.41;2100978;27;47670;-69
2022/01/11 02:49:23;;;;;;;;;19.80;18.00;;;;;7.37;61.43;102421.72;2096658;27;47329;-69
2022/01/11 02:50:25;;;;;;;;;20.60;19.20;;;;;7.37;61.74;102430.53;2105702;27;46224;-69
2022/01/11 02:51:27;;;;;;;;;20.40;19.20;;;;;7.35;61.53;102426.97;2105151;27;46888;-70
2022/01/11 02:52:28;;;;;;;;;18.20;16.40;;;;;7.35;61.54;102416.38;2105824;27;47350;-69
2022/01/11 02:53:29;;;;;;;;;19.25;19.00;;;;;7.34;61.31;102422.53;2105447;27;48136;-69
2022/01/11 02:54:29;;;;;;;;;20.00;17.40;;;;;7.34;61.56;102422.53;2096622;28;48141;-69
2022/01/11 02:55:33;;;;;;;;;21.75;20.50;;;;;7.34;61.49;102422.53;2096089;28;45773;-69
2022/01/11 02:56:34;;;;;;;;;16.60;15.40;;;;;7.33;61.41;102420.75;2097074;28;45802;-69
2022/01/11 02:57:35;;;;;;;;;21.40;20.40;;;;;7.33;61.69;102428.69;2102747;27;48153;-68
2022/01/11 02:58:36;;;;;;;;;14.75;14.75;;;;;7.33;61.30;102430.44;2105725;27;45596;-68
2022/01/11 02:59:37;;;;;;;;;24.20;22.80;;;;;7.32;61.56;102423.38;2104747;27;46741;-69
2022/01/11 03:00:41;;;;;;;;;20.25;18.50;;;;;7.31;61.71;102429.53;2104994;27;46065;-68
2022/01/11 03:01:42;;;;;;;;;22.00;19.20;;;;;7.31;61.54;102424.25;2099510;27;46157;-70
2022/01/11 03:02:43;;;;;;;;;22.00;17.75;;;;;7.31;61.32;102425.13;2105500;27;45353;-68
2022/01/11 03:03:45;;;;;;;;;16.40;13.80;;;;;7.31;61.40;102425.13;2104750;27;45641;-69
2022/01/11 03:04:45;;;;;;;;;20.40;19.40;;;;;7.31;61.76;102426.88;2096513;28;45861;-69
2022/01/11 03:05:48;;;;;;;;;17.75;16.50;;;;;7.31;61.60;102422.50;2096037;28;45701;-69
2022/01/11 03:06:48;;;;;;;;;17.40;16.60;;;;;7.32;61.68;102415.47;2105676;27;48000;-68
2022/01/11 03:07:49;;;;;;;;;22.50;17.25;;;;;7.32;61.76;102420.75;2105508;27;45575;-68
2022/01/11 03:08:50;;;;;;;;;20.75;19.50;;;;;7.31;61.72;102419.84;2105158;27;46403;-69
2022/01/11 03:10:55;;;;;;;;;20.20;17.80;;;;;7.32;61.41;102426.03;2096567;27;47799;-68
2022/01/11 03:11:56;;;;;;;;;19.00;17.20;;;;;7.32;61.56;102421.63;2095979;28;46053;-69
2022/01/11 03:12:56;;;;;;;;;21.20;17.80;;;;;7.33;61.67;102427.78;2094323;27;45974;-70
2022/01/11 03:13:57;;;;;;;;;17.25;14.50;;;;;7.32;61.32;102429.56;2105351;27;45807;-69
2022/01/11 03:14:58;;;;;;;;;24.60;19.80;;;;;7.33;61.46;102427.78;2105221;27;45492;-68
2022/01/11 03:15:58;;;;;;;;;23.00;18.00;;;;;7.31;61.41;102430.41;2105033;27;46190;-68
2022/01/11 03:16:59;;;;;;;;;19.25;17.50;;;;;7.31;61.51;102433.06;2104413;27;45796;-68
2022/01/11 03:18:00;;;;;;;;;22.25;19.50;;;;;7.31;61.79;102429.53;2087834;28;46212;-70
2022/01/11 03:19:01;;;;;;;;;18.00;18.00;;;;;7.31;61.61;102434.81;2087345;28;45859;-71
2022/01/11 03:20:02;;;;;;;;;17.75;17.75;;;;;7.30;61.45;102443.59;2106544;27;46077;-68
2022/01/11 03:21:03;;;;;;;;;22.60;18.80;;;;;7.30;61.44;102438.31;2098615;27;45625;-69
2022/01/11 03:22:04;;;;;;;;;20.20;18.60;;;;;7.31;61.73;102442.72;2087832;28;47594;-69
2022/01/11 03:23:05;;;;;;;;;17.60;14.60;;;;;7.30;61.73;102440.94;2095813;27;46169;-69
2022/01/11 03:24:06;;;;;;;;;18.00;17.80;;;;;7.31;61.64;102448.00;2105108;27;48389;-68
2022/01/11 03:25:08;;;;;;;;;17.50;17.50;;;;;7.30;61.49;102439.19;2111742;27;46317;-68
2022/01/11 03:26:08;;;;;;;;;23.00;17.60;;;;;7.31;61.65;102443.63;2113924;27;48604;-69
2022/01/11 03:27:09;;;;;;;;;23.00;19.00;;;;;7.28;61.14;102446.22;2104549;27;48180;-68
2022/01/11 03:28:12;;;;;;;;;17.25;15.50;;;;;7.30;61.62;102443.59;2104426;27;45424;-69
2022/01/11 03:29:13;;;;;;;;;19.00;16.60;;;;;7.29;61.58;102436.53;2113315;27;46675;-68
2022/01/11 03:30:13;;;;;;;;;24.75;21.75;;;;;7.29;61.74;102434.78;2113908;27;45352;-67
2022/01/11 03:31:14;;;;;;;;;20.25;19.00;;;;;7.29;61.49;102442.69;2113489;27;46366;-68
2022/01/11 03:32:18;;;;;;;;;23.00;19.25;;;;;7.27;61.62;102440.91;2113785;27;48178;-68
2022/01/11 03:33:22;;;;;;;;;19.00;19.00;;;;;7.28;61.55;102440.94;2105293;27;45757;-69
2022/01/11 03:34:22;;;;;;;;;21.40;19.80;;;;;7.28;61.66;102445.31;2107500;27;47664;-68
2022/01/11 03:35:24;;;;;;;;;22.00;19.50;;;;;7.28;61.42;102443.56;2113134;27;46460;-68
2022/01/11 03:36:25;;;;;;;;;23.60;23.20;;;;;7.27;61.46;102443.53;2113887;27;48323;-69
2022/01/11 03:37:25;;;;;;;;;19.00;18.75;;;;;7.27;61.34;102451.47;2112659;27;46009;-69
2022/01/11 03:38:26;;;;;;;;;19.25;19.00;;;;;7.28;61.39;102453.25;2105129;27;45310;-69
2022/01/11 03:39:27;;;;;;;;;18.75;18.75;;;;;7.27;61.42;102451.47;2104807;27;48221;-69
2022/01/11 03:40:28;;;;;;;;;17.40;17.40;;;;;7.27;61.50;102451.47;2105687;27;45440;-69
2022/01/11 03:41:29;;;;;;;;;23.00;18.00;;;;;7.27;61.48;102455.00;2104738;27;46263;-69
2022/01/11 03:42:30;;;;;;;;;21.50;20.25;;;;;7.26;61.73;102453.22;2096275;28;46684;-68
2022/01/11 03:43:30;;;;;;;;;18.00;15.75;;;;;7.27;61.34;102454.09;2095816;28;47375;-69
2022/01/11 03:44:31;;;;;;;;;24.00;19.50;;;;;7.26;61.60;102455.84;2095641;28;46583;-69
2022/01/11 03:45:33;;;;;;;;;18.00;15.50;;;;;7.26;61.47;102454.97;2104322;27;46702;-68
2022/01/11 03:46:33;;;;;;;;;24.60;20.40;;;;;7.24;61.63;102449.66;2104771;27;46452;-69
2022/01/11 03:47:35;;;;;;;;;18.25;17.25;;;;;7.24;61.49;102448.75;2104672;27;46083;-70
2022/01/11 03:48:36;;;;;;;;;18.60;18.60;;;;;7.23;61.68;102455.78;2113114;27;48652;-68
2022/01/11 03:49:37;;;;;;;;;19.25;18.00;;;;;7.23;61.50;102466.34;2109033;27;45406;-71
2022/01/11 03:50:37;;;;;;;;;21.50;21.50;;;;;7.21;61.43;102465.41;2109373;27;47248;-70
2022/01/11 03:51:39;;;;;;;;;25.50;20.25;;;;;7.20;61.43;102471.56;2104569;27;47319;-68
2022/01/11 03:52:40;;;;;;;;;18.80;17.40;;;;;7.20;61.38;102474.19;2096032;27;48075;-68
2022/01/11 03:53:52;;;;;;;;;15.75;15.25;;;;;7.20;61.55;102468.91;2095703;28;45331;-69
2022/01/11 03:56:57;;;;;;;;;16.00;16.00;;;;;7.18;61.48;102473.28;2113668;27;45535;-69
2022/01/11 03:57:58;;;;;;;;;18.25;18.25;;;;;7.17;61.59;102468.88;2103916;27;48127;-68
2022/01/11 03:59:00;;;;;;;;;22.75;18.50;;;;;7.18;61.89;102467.13;2096859;27;46494;-69
2022/01/11 04:00:07;;;;;;;;;18.00;18.00;;;;;7.16;61.65;102467.09;2104614;27;46386;-69
2022/01/11 04:01:08;;;;;;;;;21.60;19.00;;;;;7.16;61.71;102461.81;2095751;28;48571;-69
2022/01/11 04:02:09;;;;;;;;;24.25;21.00;;;;;7.14;61.63;102460.88;2102449;27;45988;-69
2022/01/11 04:03:10;;;;;;;;;22.67;19.67;;;;;7.15;61.88;102459.13;2104137;27;45731;-69
2022/01/11 04:04:12;;;;;;;;;20.80;20.80;;;;;7.15;61.78;102460.03;2104663;27;48109;-68
2022/01/11 04:05:13;;;;;;;;;18.40;16.20;;;;;7.16;61.88;102460.91;2104027;27;46540;-69
2022/01/11 04:06:16;;;;;;;;;25.20;23.00;;;;;7.16;61.78;102453.00;2098620;27;48440;-67
2022/01/11 04:07:17;;;;;;;;;25.80;24.20;;;;;7.15;61.86;102449.47;2096495;27;46954;-69
2022/01/11 04:08:18;;;;;;;;;16.50;16.50;;;;;7.16;62.11;102458.28;2104387;27;45456;-71
2022/01/11 04:09:20;;;;;;;;;22.60;19.80;;;;;7.15;61.83;102448.56;2113425;27;46031;-70
2022/01/11 04:10:21;;;;;;;;;25.60;21.80;;;;;7.15;61.87;102446.81;2113499;27;45377;-70
2022/01/11 04:11:22;;;;;;;;;20.50;18.25;;;;;7.17;61.71;102454.78;2113315;27;48044;-69
2022/01/11 04:12:24;;;;;;;;;26.00;24.50;;;;;7.16;61.63;102447.72;2104663;27;47587;-69
2022/01/11 04:13:24;;;;;;;;;25.40;22.60;;;;;7.16;61.73;102443.31;2095456;28;48186;-70
2022/01/11 04:14:25;;;;;;;;;21.00;21.00;;;;;7.16;61.75;102448.59;2087391;28;45872;-72
2022/01/11 04:15:26;;;;;;;;;26.25;22.50;;;;;7.16;62.07;102456.53;2095633;28;46393;-69
2022/01/11 04:16:27;;;;;;;;;24.75;21.50;;;;;7.14;62.02;102447.69;2110081;27;45302;-69
2022/01/11 04:17:28;;;;;;;;;19.80;17.60;;;;;7.13;62.29;102447.66;2112450;27;47289;-68
2022/01/11 04:18:28;;;;;;;;;24.50;21.75;;;;;7.14;61.80;102458.25;2104437;27;46056;-69
2022/01/11 04:19:29;;;;;;;;;31.25;25.50;;;;;7.14;61.87;102457.34;2103867;27;48840;-69
2022/01/11 04:20:30;;;;;;;;;25.25;22.75;;;;;7.16;61.77;102455.63;2113186;27;48326;-69
2022/01/11 04:21:30;;;;;;;;;24.50;21.25;;;;;7.14;61.82;102458.25;2104140;27;45777;-68
2022/01/11 04:22:31;;;;;;;;;25.75;23.00;;;;;7.14;61.85;102460.88;2104272;27;48108;-68
2022/01/11 04:23:32;;;;;;;;;25.00;23.50;;;;;7.12;61.99;102452.06;2104095;27;45345;-69
2022/01/11 04:24:33;;;;;;;;;27.00;21.00;;;;;7.13;61.82;102456.47;2104486;27;46466;-69
2022/01/11 04:25:33;;;;;;;;;23.50;23.50;;;;;7.14;61.78;102449.44;2103748;27;47946;-69
2022/01/11 04:26:34;;;;;;;;;22.75;22.00;;;;;7.14;61.98;102450.31;2113508;27;47492;-67
2022/01/11 04:27:35;;;;;;;;;27.25;23.50;;;;;7.14;61.80;102447.69;2098673;27;45457;-69
2022/01/11 04:28:35;;;;;;;;;24.75;21.00;;;;;7.14;61.50;102452.06;2088276;28;46254;-68
2022/01/11 04:29:36;;;;;;;;;23.25;22.75;;;;;7.15;61.71;102446.81;2095363;28;48335;-70
2022/01/11 04:30:37;;;;;;;;;30.50;23.75;;;;;7.14;61.71;102458.25;2105045;27;45576;-69
2022/01/11 04:31:38;;;;;;;;;25.40;22.80;;;;;7.14;61.79;102455.59;2104741;27;48038;-69
2022/01/11 04:32:39;;;;;;;;;21.80;21.20;;;;;7.14;61.74;102455.59;2104843;27;46440;-69
2022/01/11 04:33:44;;;;;;;;;24.00;24.00;;;;;7.12;62.10;102457.34;2104704;27;47108;-68
2022/01/11 04:34:45;;;;;;;;;25.00;23.60;;;;;7.14;61.91;102458.25;2095825;28;47980;-69
2022/01/11 04:35:48;;;;;;;;;21.50;21.00;;;;;7.13;61.98;102456.47;2095287;28;46008;-69
2022/01/11 04:36:49;;;;;;;;;21.40;19.20;;;;;7.12;61.76;102454.69;2091523;28;47734;-69
2022/01/11 04:37:50;;;;;;;;;23.25;21.75;;;;;7.10;61.82;102456.38;2095749;28;45434;-69
2022/01/11 04:38:51;;;;;;;;;24.20;22.60;;;;;7.10;61.97;102453.75;2112780;27;46595;-69
2022/01/11 04:39:51;;;;;;;;;22.50;21.50;;;;;7.09;61.50;102458.13;2098504;27;46453;-69
2022/01/11 04:40:53;;;;;;;;;23.75;21.00;;;;;7.11;61.97;102463.44;2104254;27;48537;-68
2022/01/11 04:41:53;;;;;;;;;27.00;23.20;;;;;7.12;62.11;102467.91;2095429;27;48146;-70
2022/01/11 04:42:54;;;;;;;;;23.50;21.75;;;;;7.14;62.16;102471.44;2104107;27;45891;-68
2022/01/11 04:43:54;;;;;;;;;25.25;23.50;;;;;7.14;61.92;102471.44;2113105;27;46640;-69
2022/01/11 04:44:55;;;;;;;;;29.00;27.00;;;;;7.15;62.13;102475.88;2113150;27;47743;-69
2022/01/11 04:45:56;;;;;;;;;25.00;22.00;;;;;7.14;62.03;102468.81;2107872;27;45270;-70
2022/01/11 04:46:56;;;;;;;;;27.00;25.00;;;;;7.15;61.92;102462.66;2104730;27;46583;-69
2022/01/11 04:47:57;;;;;;;;;24.50;22.25;;;;;7.15;61.90;102465.31;2095222;28;46202;-68